Aviation Digital Data Service (ADDS)

Output produced by METARs form (2155 UTC 16 February 2019)
found at http://www.aviationweather.gov/metar/data/
 
METAR text: VTUD 161500Z 29009KT 6000 NSC 26/20 Q1012 NOSIG
Conditions at: VTUD (UDON THANI(CIV/A, TH) observed 1500 UTC 16 February 2019
Temperature: 26.0°C (79°F)
Dewpoint: 20.0°C (68°F) [RH = 70%]
Pressure (altimeter): 29.88 inches Hg (1012.0 mb)
Winds: from the WNW (290 degrees) at 10 MPH (9 knots; 4.6 m/s)
Visibility: 4 miles ( 6 km)
Ceiling: at least 12,000 feet AGL
Clouds: sky clear below 12,000 feet AGL
Weather: no significant weather observed at this time

METAR text: VTUD 161400Z 31013KT 6000 NSC 27/20 Q1012 NOSIG
Conditions at: VTUD (UDON THANI(CIV/A, TH) observed 1400 UTC 16 February 2019
Temperature: 27.0°C (81°F)
Dewpoint: 20.0°C (68°F) [RH = 66%]
Pressure (altimeter): 29.88 inches Hg (1012.0 mb)
Winds: from the NW (310 degrees) at 15 MPH (13 knots; 6.7 m/s)
Visibility: 4 miles ( 6 km)
Ceiling: at least 12,000 feet AGL
Clouds: sky clear below 12,000 feet AGL
Weather: no significant weather observed at this time

METAR text: VTUD 161300Z 27008KT 170V300 6000 FEW040 29/20 Q1011 NOSIG
Conditions at: VTUD (UDON THANI(CIV/A, TH) observed 1300 UTC 16 February 2019
Temperature: 29.0°C (84°F)
Dewpoint: 20.0°C (68°F) [RH = 58%]
Pressure (altimeter): 29.85 inches Hg (1011.0 mb)
Winds: from the W (270 degrees) at 9 MPH (8 knots; 4.1 m/s)
Visibility: 4 miles ( 6 km)
Ceiling: at least 12,000 feet AGL
Clouds: few clouds at 4000 feet AGL
Weather: no significant weather observed at this time

METAR text: VTUD 161200Z 11003KT 7000 FEW030 31/18 Q1010 NOSIG
Conditions at: VTUD (UDON THANI(CIV/A, TH) observed 1200 UTC 16 February 2019
Temperature: 31.0°C (88°F)
Dewpoint: 18.0°C (64°F) [RH = 46%]
Pressure (altimeter): 29.82 inches Hg (1010.0 mb)
Winds: from the ESE (110 degrees) at 3 MPH (3 knots; 1.5 m/s)
Visibility: 4 miles ( 7 km)
Ceiling: at least 12,000 feet AGL
Clouds: few clouds at 3000 feet AGL
Weather: no significant weather observed at this time

METAR text: VTUD 161100Z 14004KT 7000 FEW030 32/18 Q1009 NOSIG
Conditions at: VTUD (UDON THANI(CIV/A, TH) observed 1100 UTC 16 February 2019
Temperature: 32.0°C (90°F)
Dewpoint: 18.0°C (64°F) [RH = 43%]
Pressure (altimeter): 29.79 inches Hg (1009.0 mb)
Winds: from the SE (140 degrees) at 5 MPH (4 knots; 2.1 m/s)
Visibility: 4 miles ( 7 km)
Ceiling: at least 12,000 feet AGL
Clouds: few clouds at 3000 feet AGL
Weather: no significant weather observed at this time

METAR text: VTUD 161000Z 18005KT 8000 FEW030 34/17 Q1009 NOSIG
Conditions at: VTUD (UDON THANI(CIV/A, TH) observed 1000 UTC 16 February 2019
Temperature: 34.0°C (93°F)
Dewpoint: 17.0°C (63°F) [RH = 36%]
Pressure (altimeter): 29.79 inches Hg (1009.0 mb)
Winds: from the S (180 degrees) at 6 MPH (5 knots; 2.6 m/s)
Visibility: 5 miles ( 8 km)
Ceiling: at least 12,000 feet AGL
Clouds: few clouds at 3000 feet AGL
Weather: no significant weather observed at this time

METAR text: VTUD 160900Z 14003KT 060V200 8000 FEW030 35/17 Q1009 NOSIG
Conditions at: VTUD (UDON THANI(CIV/A, TH) observed 0900 UTC 16 February 2019
Temperature: 35.0°C (95°F)
Dewpoint: 17.0°C (63°F) [RH = 34%]
Pressure (altimeter): 29.79 inches Hg (1009.0 mb)
Winds: from the SE (140 degrees) at 3 MPH (3 knots; 1.5 m/s)
Visibility: 5 miles ( 8 km)
Ceiling: at least 12,000 feet AGL
Clouds: few clouds at 3000 feet AGL
Weather: no significant weather observed at this time

METAR text: VTUD 160800Z 27003KT 220V030 8000 FEW030 35/18 Q1010 NOSIG
Conditions at: VTUD (UDON THANI(CIV/A, TH) observed 0800 UTC 16 February 2019
Temperature: 35.0°C (95°F)
Dewpoint: 18.0°C (64°F) [RH = 37%]
Pressure (altimeter): 29.82 inches Hg (1010.0 mb)
Winds: from the W (270 degrees) at 3 MPH (3 knots; 1.5 m/s)
Visibility: 5 miles ( 8 km)
Ceiling: at least 12,000 feet AGL
Clouds: few clouds at 3000 feet AGL
Weather: no significant weather observed at this time

METAR text: VTUD 160700Z VRB03KT 8000 FEW030 35/17 Q1011 NOSIG
Conditions at: VTUD (UDON THANI(CIV/A, TH) observed 0700 UTC 16 February 2019
Temperature: 35.0°C (95°F)
Dewpoint: 17.0°C (63°F) [RH = 34%]
Pressure (altimeter): 29.85 inches Hg (1011.0 mb)
Winds: variable direction winds at 3 MPH (3 knots; 1.5 m/s)
Visibility: 5 miles ( 8 km)
Ceiling: at least 12,000 feet AGL
Clouds: few clouds at 3000 feet AGL
Weather: no significant weather observed at this time

METAR text: VTUD 160600Z VRB03KT 7000 NSC 35/18 Q1013 NOSIG
Conditions at: VTUD (UDON THANI(CIV/A, TH) observed 0600 UTC 16 February 2019
Temperature: 35.0°C (95°F)
Dewpoint: 18.0°C (64°F) [RH = 37%]
Pressure (altimeter): 29.91 inches Hg (1013.0 mb)
Winds: variable direction winds at 3 MPH (3 knots; 1.5 m/s)
Visibility: 4 miles ( 7 km)
Ceiling: at least 12,000 feet AGL
Clouds: sky clear below 12,000 feet AGL
Weather: no significant weather observed at this time

METAR text: VTUD 160500Z VRB05KT 6000 NSC 34/17 Q1014 NOSIG
Conditions at: VTUD (UDON THANI(CIV/A, TH) observed 0500 UTC 16 February 2019
Temperature: 34.0°C (93°F)
Dewpoint: 17.0°C (63°F) [RH = 36%]
Pressure (altimeter): 29.94 inches Hg (1014.0 mb)
Winds: variable direction winds at 6 MPH (5 knots; 2.6 m/s)
Visibility: 4 miles ( 6 km)
Ceiling: at least 12,000 feet AGL
Clouds: sky clear below 12,000 feet AGL
Weather: no significant weather observed at this time

METAR text: VTUD 160400Z VRB02KT 4000 HZ NSC 32/18 Q1015 BECMG TL0500 5000 HZ
Conditions at: VTUD (UDON THANI(CIV/A, TH) observed 0400 UTC 16 February 2019
Temperature: 32.0°C (90°F)
Dewpoint: 18.0°C (64°F) [RH = 43%]
Pressure (altimeter): 29.97 inches Hg (1015.0 mb)
Winds: variable direction winds at 2 MPH (2 knots; 1.0 m/s)
Visibility: 2.49 miles (4.01 km)
Ceiling: at least 12,000 feet AGL
Clouds: sky clear below 12,000 feet AGL
Weather: HZ  (haze)

METAR text: VTUD 160300Z 11004KT 020V190 3000 HZ NSC 30/19 Q1016 BECMG TL0400 4000 HZ
Conditions at: VTUD (UDON THANI(CIV/A, TH) observed 0300 UTC 16 February 2019
Temperature: 30.0°C (86°F)
Dewpoint: 19.0°C (66°F) [RH = 52%]
Pressure (altimeter): 30.00 inches Hg (1016.0 mb)
Winds: from the ESE (110 degrees) at 5 MPH (4 knots; 2.1 m/s)
Visibility: 1.86 miles (2.99 km)
Ceiling: at least 12,000 feet AGL
Clouds: sky clear below 12,000 feet AGL
Weather: HZ  (haze)

METAR text: VTUD 160200Z 11004KT 080V150 2500 BR NSC 27/19 Q1016 NOSIG
Conditions at: VTUD (UDON THANI(CIV/A, TH) observed 0200 UTC 16 February 2019
Temperature: 27.0°C (81°F)
Dewpoint: 19.0°C (66°F) [RH = 62%]
Pressure (altimeter): 30.00 inches Hg (1016.0 mb)
Winds: from the ESE (110 degrees) at 5 MPH (4 knots; 2.1 m/s)
Visibility: 1.55 miles (2.49 km)
Ceiling: at least 12,000 feet AGL
Clouds: sky clear below 12,000 feet AGL
Weather: BR  (mist)

METAR text: VTUD 160100Z 00000KT 2500 BR NSC 23/20 Q1016 NOSIG
Conditions at: VTUD (UDON THANI(CIV/A, TH) observed 0100 UTC 16 February 2019
Temperature: 23.0°C (73°F)
Dewpoint: 20.0°C (68°F) [RH = 83%]
Pressure (altimeter): 30.00 inches Hg (1016.0 mb)
Winds: calm
Visibility: 1.55 miles (2.49 km)
Ceiling: at least 12,000 feet AGL
Clouds: sky clear below 12,000 feet AGL
Weather: BR  (mist)

METAR text: VTUD 160000Z VRB01KT 2000 BR NSC 22/19 Q1015 NOSIG
Conditions at: VTUD (UDON THANI(CIV/A, TH) observed 0000 UTC 16 February 2019
Temperature: 22.0°C (72°F)
Dewpoint: 19.0°C (66°F) [RH = 83%]
Pressure (altimeter): 29.97 inches Hg (1015.0 mb)
Winds: variable direction winds at 1 MPH (1 knots; 0.5 m/s)
Visibility: 1.24 miles (2.00 km)
Ceiling: at least 12,000 feet AGL
Clouds: sky clear below 12,000 feet AGL
Weather: BR  (mist)

METAR text: VTUD 152300Z 00000KT 3500 BR NSC 22/20 Q1014 NOSIG
Conditions at: VTUD (UDON THANI(CIV/A, TH) observed 2300 UTC 15 February 2019
Temperature: 22.0°C (72°F)
Dewpoint: 20.0°C (68°F) [RH = 88%]
Pressure (altimeter): 29.94 inches Hg (1014.0 mb)
Winds: calm
Visibility: 2.17 miles (3.49 km)
Ceiling: at least 12,000 feet AGL
Clouds: sky clear below 12,000 feet AGL
Weather: BR  (mist)

METAR text: VTUD 152200Z 00000KT 4500 BR NSC 23/20 Q1014 NOSIG
Conditions at: VTUD (UDON THANI(CIV/A, TH) observed 2200 UTC 15 February 2019
Temperature: 23.0°C (73°F)
Dewpoint: 20.0°C (68°F) [RH = 83%]
Pressure (altimeter): 29.94 inches Hg (1014.0 mb)
Winds: calm
Visibility: 2.80 miles (4.51 km)
Ceiling: at least 12,000 feet AGL
Clouds: sky clear below 12,000 feet AGL
Weather: BR  (mist)

METAR text: VTUD 151500Z 00000KT 7000 NSC 26/19 Q1015 NOSIG
Conditions at: VTUD (UDON THANI(CIV/A, TH) observed 1500 UTC 15 February 2019
Temperature: 26.0°C (79°F)
Dewpoint: 19.0°C (66°F) [RH = 65%]
Pressure (altimeter): 29.97 inches Hg (1015.0 mb)
Winds: calm
Visibility: 4 miles ( 7 km)
Ceiling: at least 12,000 feet AGL
Clouds: sky clear below 12,000 feet AGL
Weather: no significant weather observed at this time

METAR text: VTUD 151400Z 00000KT 7000 NSC 26/18 Q1014 NOSIG
Conditions at: VTUD (UDON THANI(CIV/A, TH) observed 1400 UTC 15 February 2019
Temperature: 26.0°C (79°F)
Dewpoint: 18.0°C (64°F) [RH = 61%]
Pressure (altimeter): 29.94 inches Hg (1014.0 mb)
Winds: calm
Visibility: 4 miles ( 7 km)
Ceiling: at least 12,000 feet AGL
Clouds: sky clear below 12,000 feet AGL
Weather: no significant weather observed at this time

METAR text: VTUD 151300Z 10003KT 7000 NSC 28/18 Q1014 NOSIG
Conditions at: VTUD (UDON THANI(CIV/A, TH) observed 1300 UTC 15 February 2019
Temperature: 28.0°C (82°F)
Dewpoint: 18.0°C (64°F) [RH = 55%]
Pressure (altimeter): 29.94 inches Hg (1014.0 mb)
Winds: from the E (100 degrees) at 3 MPH (3 knots; 1.5 m/s)
Visibility: 4 miles ( 7 km)
Ceiling: at least 12,000 feet AGL
Clouds: sky clear below 12,000 feet AGL
Weather: no significant weather observed at this time

METAR text: VTUD 151200Z 11003KT 7000 NSC 29/18 Q1013 NOSIG
Conditions at: VTUD (UDON THANI(CIV/A, TH) observed 1200 UTC 15 February 2019
Temperature: 29.0°C (84°F)
Dewpoint: 18.0°C (64°F) [RH = 52%]
Pressure (altimeter): 29.91 inches Hg (1013.0 mb)
Winds: from the ESE (110 degrees) at 3 MPH (3 knots; 1.5 m/s)
Visibility: 4 miles ( 7 km)
Ceiling: at least 12,000 feet AGL
Clouds: sky clear below 12,000 feet AGL
Weather: no significant weather observed at this time

METAR text: VTUD 151100Z 13004KT 7000 NSC 31/18 Q1012 NOSIG
Conditions at: VTUD (UDON THANI(CIV/A, TH) observed 1100 UTC 15 February 2019
Temperature: 31.0°C (88°F)
Dewpoint: 18.0°C (64°F) [RH = 46%]
Pressure (altimeter): 29.88 inches Hg (1012.0 mb)
Winds: from the SE (130 degrees) at 5 MPH (4 knots; 2.1 m/s)
Visibility: 4 miles ( 7 km)
Ceiling: at least 12,000 feet AGL
Clouds: sky clear below 12,000 feet AGL
Weather: no significant weather observed at this time

METAR text: VTUD 151000Z 14003KT 050V180 8000 NSC 33/18 Q1012 NOSIG
Conditions at: VTUD (UDON THANI(CIV/A, TH) observed 1000 UTC 15 February 2019
Temperature: 33.0°C (91°F)
Dewpoint: 18.0°C (64°F) [RH = 41%]
Pressure (altimeter): 29.88 inches Hg (1012.0 mb)
Winds: from the SE (140 degrees) at 3 MPH (3 knots; 1.5 m/s)
Visibility: 5 miles ( 8 km)
Ceiling: at least 12,000 feet AGL
Clouds: sky clear below 12,000 feet AGL
Weather: no significant weather observed at this time

Forecast for: VTUD (UDON THANI(CIV/A, TH)
Text: TAF VTUD 161700Z 1618/1718 14005KT 8000 SCT030 SCT100
Forecast period: 1800 to 2200 UTC 16 February 2019
Forecast type: FROM: standard forecast or significant change
Winds: from the SE (140 degrees) at 6 MPH (5 knots; 2.6 m/s)
Visibility: 5 miles (8 km)
Ceiling: at least 12,000 feet AGL
Clouds: scattered clouds at 3000 feet AGL
scattered clouds at 10000 feet AGL
Weather: no significant weather forecast for this period
Text: BECMG 1622/1624 4000 BR
Forecast period: 2200 UTC 16 February 2019 to 0100 UTC 17 February 2019
Forecast type: BECOMING: Conditions expected to become as follows by 0000 UTC 17 February 2019
Winds: from the SE (140 degrees) at 6 MPH (5 knots; 2.6 m/s)
Visibility: 2.49 miles (4.01 km)
Ceiling: at least 12,000 feet AGL
Clouds: scattered clouds at 3000 feet AGL
scattered clouds at 10000 feet AGL
Weather: BR  (mist)
Text: BECMG 1701/1703 8000 NSW
Forecast period: 0100 to 1800 UTC 17 February 2019
Forecast type: BECOMING: Conditions expected to become as follows by 0300 UTC 17 February 2019
Winds: from the SE (140 degrees) at 6 MPH (5 knots; 2.6 m/s)
Visibility: 5 miles (8 km)
Ceiling: at least 12,000 feet AGL
Clouds: scattered clouds at 3000 feet AGL
scattered clouds at 10000 feet AGL
Weather: NSW  (no significant weather)
Text: TEMPO 1706/1711 VRB10G20KT 5000 TSRA FEW018CB BKN020 BKN100
Forecast period: 0600 to 1100 UTC 17 February 2019
Forecast type: TEMPORARY: The following changes expected for less than half the time period
Winds: variable direction winds at 12 MPH (10 knots; 5.1 m/s)
gusting to 23 MPH (20 knots; 10.3 m/s)
Visibility: 3 miles (5 km)
Ceiling: 2000 feet AGL
Clouds: few clouds at 1800 feet AGL
broken clouds at 2000 feet AGL
broken clouds at 10000 feet AGL
Weather: TSRA  (rain associated with thunderstorm(s))